Time,TemperatureF,DewpointF,PressureIn,WindDirection,WindDirectionDegrees,WindSpeedMPH,WindSpeedGustMPH,Humidity,HourlyPrecipIn,Conditions,Clouds,dailyrainin,SoftwareType,DateUTC
2013-05-03 00:02:00,62.0,61.0,30.04,NW,317,0.0,0.0,96,0.00,,,0.24,,2013-05-03 05:02:00,
2013-05-03 00:12:00,62.0,61.0,30.04,NW,317,0.0,0.0,96,0.00,,,0.24,,2013-05-03 05:12:00,
2013-05-03 00:21:00,62.0,61.0,30.04,NW,317,0.0,0.0,96,0.00,,,0.24,,2013-05-03 05:21:00,
2013-05-03 00:32:00,62.0,61.0,30.04,NW,317,0.0,0.0,96,0.00,,,0.24,,2013-05-03 05:32:00,
2013-05-03 00:42:00,62.0,61.0,30.04,NW,317,0.0,0.0,96,0.00,,,0.24,,2013-05-03 05:42:00,
2013-05-03 00:52:00,62.0,61.0,30.04,NW,317,0.0,0.0,96,0.00,,,0.24,,2013-05-03 05:52:00,
2013-05-03 01:01:00,62.0,61.0,30.02,SE,130,0.0,6.0,96,0.00,,,0.24,,2013-05-03 06:01:00,
2013-05-03 01:12:00,62.0,61.0,30.02,SE,130,0.0,6.0,96,0.00,,,0.24,,2013-05-03 06:12:00,
2013-05-03 01:21:00,62.0,61.0,30.01,East,84,2.0,3.0,96,0.00,,,0.24,,2013-05-03 06:21:00,
2013-05-03 01:32:00,62.0,61.0,30.00,ESE,115,4.0,4.0,96,0.00,,,0.24,,2013-05-03 06:32:00,
2013-05-03 01:42:00,62.0,61.0,30.00,ESE,115,4.0,4.0,96,0.00,,,0.24,,2013-05-03 06:42:00,
2013-05-03 01:52:00,61.0,60.0,29.99,SE,134,0.0,7.0,96,0.00,,,0.24,,2013-05-03 06:52:00,
2013-05-03 02:01:00,61.0,60.0,29.99,SE,134,0.0,7.0,96,0.00,,,0.24,,2013-05-03 07:01:00,
2013-05-03 02:11:00,61.0,60.0,29.99,SE,134,0.0,7.0,96,0.00,,,0.24,,2013-05-03 07:11:00,
2013-05-03 02:21:00,61.0,60.0,29.99,SE,134,0.0,7.0,96,0.00,,,0.24,,2013-05-03 07:21:00,
2013-05-03 02:31:00,61.0,60.0,29.96,ESE,103,0.0,6.0,96,0.04,,,0.28,,2013-05-03 07:31:00,
2013-05-03 02:42:00,61.0,60.0,29.96,ESE,103,0.0,6.0,96,0.04,,,0.28,,2013-05-03 07:42:00,
2013-05-03 02:52:00,61.0,60.0,29.96,ESE,103,0.0,0.0,96,0.04,,,0.28,,2013-05-03 07:52:00,
2013-05-03 03:01:00,61.0,60.0,29.95,ESE,103,0.0,0.0,96,0.03,,,0.28,,2013-05-03 08:01:00,
2013-05-03 03:11:00,61.0,60.0,29.95,ESE,103,0.0,0.0,96,0.03,,,0.28,,2013-05-03 08:11:00,
2013-05-03 03:21:00,61.0,60.0,29.95,ESE,103,0.0,0.0,96,0.02,,,0.28,,2013-05-03 08:21:00,
2013-05-03 03:32:00,61.0,60.0,29.94,ESE,115,4.0,4.0,96,0.01,,,0.29,,2013-05-03 08:32:00,
2013-05-03 03:42:00,61.0,60.0,29.94,ESE,115,4.0,4.0,96,0.01,,,0.29,,2013-05-03 08:42:00,
2013-05-03 03:52:00,61.0,60.0,29.94,ESE,115,4.0,4.0,96,0.01,,,0.29,,2013-05-03 08:52:00,
2013-05-03 04:01:00,61.0,60.0,29.94,SE,126,4.0,6.0,96,0.01,,,0.29,,2013-05-03 09:01:00,
2013-05-03 04:11:00,61.0,60.0,29.94,SE,126,4.0,6.0,96,0.01,,,0.29,,2013-05-03 09:11:00,
2013-05-03 04:21:00,61.0,60.0,29.94,SE,129,2.0,7.0,96,0.01,,,0.29,,2013-05-03 09:21:00,
2013-05-03 04:32:00,61.0,60.0,29.94,SSE,168,0.0,5.0,96,0.01,,,0.29,,2013-05-03 09:32:00,
2013-05-03 04:42:00,61.0,60.0,29.94,SSE,168,0.0,5.0,96,0.01,,,0.29,,2013-05-03 09:42:00,
2013-05-03 04:52:00,61.0,60.0,29.94,SSE,168,0.0,5.0,96,0.01,,,0.29,,2013-05-03 09:52:00,
2013-05-03 05:02:00,61.0,60.0,29.93,ESE,114,2.0,4.0,96,0.00,,,0.29,,2013-05-03 10:02:00,
2013-05-03 05:12:00,61.0,60.0,29.93,ESE,114,2.0,4.0,96,0.00,,,0.29,,2013-05-03 10:12:00,
2013-05-03 05:22:00,61.0,60.0,29.93,ESE,114,2.0,4.0,96,0.00,,,0.29,,2013-05-03 10:22:00,
2013-05-03 05:32:00,61.0,60.0,29.93,South,172,0.0,5.0,96,0.01,,,0.30,,2013-05-03 10:32:00,
2013-05-03 05:42:00,61.0,60.0,29.93,South,172,0.0,5.0,96,0.01,,,0.30,,2013-05-03 10:42:00,
2013-05-03 05:52:00,61.0,60.0,29.93,South,172,0.0,2.0,96,0.01,,,0.30,,2013-05-03 10:52:00,
2013-05-03 06:02:00,61.0,60.0,29.92,SSW,192,2.0,5.0,96,0.00,,,0.30,,2013-05-03 11:02:00,
2013-05-03 06:11:00,61.0,60.0,29.92,SSW,192,2.0,5.0,96,0.00,,,0.30,,2013-05-03 11:11:00,
2013-05-03 06:22:00,61.0,60.0,29.92,SSW,192,2.0,5.0,96,0.00,,,0.30,,2013-05-03 11:22:00,
2013-05-03 06:32:00,61.0,60.0,29.92,SSW,193,0.0,5.0,96,0.00,,,0.30,,2013-05-03 11:32:00,
2013-05-03 06:42:00,61.0,60.0,29.92,SSW,193,0.0,5.0,96,0.00,,,0.30,,2013-05-03 11:42:00,
2013-05-03 06:51:00,60.0,58.0,29.92,WNW,296,4.0,6.0,94,0.00,,,0.30,,2013-05-03 11:51:00,
2013-05-03 07:01:00,60.0,58.0,29.92,WNW,296,4.0,6.0,94,0.00,,,0.30,,2013-05-03 12:01:00,
2013-05-03 07:11:00,60.0,58.0,29.92,WNW,296,4.0,6.0,94,0.00,,,0.30,,2013-05-03 12:11:00,
2013-05-03 07:21:00,60.0,58.0,29.92,WNW,296,4.0,6.0,94,0.00,,,0.30,,2013-05-03 12:21:00,
2013-05-03 07:32:00,56.0,54.0,29.92,West,265,0.0,7.0,93,0.00,,,0.30,,2013-05-03 12:32:00,
2013-05-03 07:42:00,56.0,54.0,29.92,West,265,0.0,7.0,93,0.00,,,0.30,,2013-05-03 12:42:00,
2013-05-03 07:52:00,55.0,53.0,29.92,SW,223,8.0,8.0,93,0.06,,,0.35,,2013-05-03 12:52:00,
2013-05-03 08:01:00,54.0,52.0,29.93,WNW,284,0.0,8.0,93,0.11,,,0.40,,2013-05-03 13:01:00,
2013-05-03 08:11:00,54.0,52.0,29.93,WNW,284,0.0,8.0,93,0.11,,,0.40,,2013-05-03 13:11:00,
2013-05-03 08:22:00,54.0,52.0,29.93,WNW,284,0.0,8.0,93,0.11,,,0.40,,2013-05-03 13:22:00,
2013-05-03 08:32:00,52.0,50.0,29.93,WSW,244,6.0,7.0,93,0.19,,,0.47,,2013-05-03 13:32:00,
2013-05-03 08:42:00,52.0,50.0,29.93,WSW,244,6.0,7.0,93,0.19,,,0.47,,2013-05-03 13:42:00,
2013-05-03 08:52:00,50.0,48.0,29.93,NW,313,8.0,9.0,94,0.16,,,0.50,,2013-05-03 13:52:00,
2013-05-03 09:02:00,50.0,48.0,29.93,West,273,18.0,18.0,94,0.12,,,0.51,,2013-05-03 14:02:00,
2013-05-03 09:11:00,50.0,48.0,29.93,West,273,18.0,18.0,94,0.12,,,0.51,,2013-05-03 14:11:00,
2013-05-03 09:22:00,49.0,47.0,29.93,NNW,327,4.0,12.0,94,0.09,,,0.55,,2013-05-03 14:22:00,
2013-05-03 09:32:00,48.0,46.0,29.93,West,266,6.0,9.0,94,0.10,,,0.57,,2013-05-03 14:32:00,
2013-05-03 09:42:00,48.0,46.0,29.93,West,266,6.0,9.0,94,0.10,,,0.57,,2013-05-03 14:42:00,
2013-05-03 09:52:00,48.0,46.0,29.93,West,266,6.0,9.0,94,0.10,,,0.57,,2013-05-03 14:52:00,
2013-05-03 10:01:00,46.0,44.0,29.93,West,259,14.0,14.0,94,0.05,,,0.59,,2013-05-03 15:01:00,
2013-05-03 10:11:00,46.0,44.0,29.93,West,259,14.0,14.0,94,0.05,,,0.59,,2013-05-03 15:11:00,
2013-05-03 10:22:00,46.0,45.0,29.93,WSW,240,0.0,11.0,95,0.06,,,0.61,,2013-05-03 15:22:00,
2013-05-03 10:32:00,46.0,45.0,29.93,WNW,288,8.0,8.0,95,0.05,,,0.62,,2013-05-03 15:32:00,
2013-05-03 10:43:00,46.0,45.0,29.93,WNW,288,8.0,8.0,95,0.05,,,0.62,,2013-05-03 15:43:00,
2013-05-03 10:53:00,46.0,45.0,29.93,WNW,288,8.0,8.0,95,0.05,,,0.62,,2013-05-03 15:53:00,
2013-05-03 11:03:00,45.0,44.0,29.94,WSW,254,4.0,11.0,95,0.08,,,0.66,,2013-05-03 16:03:00,
2013-05-03 11:10:00,45.0,44.0,29.94,West,261,0.0,8.0,95,0.14,,,0.76,,2013-05-03 16:10:00,
2013-05-03 11:12:00,45.0,44.0,29.94,WSW,254,4.0,11.0,95,0.08,,,0.66,,2013-05-03 16:12:00,
2013-05-03 11:22:00,45.0,44.0,29.94,WNW,298,6.0,8.0,95,0.11,,,0.72,,2013-05-03 16:22:00,
2013-05-03 11:32:00,45.0,44.0,29.94,West,261,0.0,8.0,95,0.14,,,0.76,,2013-05-03 16:32:00,
2013-05-03 11:42:00,45.0,44.0,29.94,West,261,0.0,8.0,95,0.14,,,0.76,,2013-05-03 16:42:00,
2013-05-03 11:52:00,45.0,44.0,29.94,West,261,0.0,8.0,95,0.14,,,0.76,,2013-05-03 16:52:00,
2013-05-03 12:02:00,45.0,44.0,29.94,West,261,0.0,8.0,95,0.14,,,0.76,,2013-05-03 17:02:00,
2013-05-03 12:32:00,43.0,42.0,29.91,NW,312,2.0,9.0,96,0.34,,,1.14,,2013-05-03 17:32:00,
2013-05-03 12:42:00,43.0,42.0,29.91,NW,312,2.0,9.0,96,0.34,,,1.14,,2013-05-03 17:42:00,
2013-05-03 12:52:00,43.0,42.0,29.91,WNW,296,0.0,11.0,96,0.35,,,1.21,,2013-05-03 17:52:00,
2013-05-03 13:01:00,43.0,42.0,29.92,WNW,282,4.0,8.0,96,0.36,,,1.35,,2013-05-03 18:01:00,
2013-05-03 13:12:00,43.0,42.0,29.92,WNW,282,4.0,8.0,96,0.36,,,1.35,,2013-05-03 18:12:00,
2013-05-03 13:21:00,43.0,42.0,29.92,WNW,282,4.0,8.0,96,0.36,,,1.35,,2013-05-03 18:21:00,
2013-05-03 13:32:00,44.0,43.0,29.91,WNW,292,0.0,9.0,96,0.31,,,1.44,,2013-05-03 18:32:00,
2013-05-03 13:42:00,44.0,43.0,29.91,WNW,292,0.0,9.0,96,0.31,,,1.44,,2013-05-03 18:42:00,
2013-05-03 13:51:00,44.0,43.0,29.92,WSW,253,12.0,12.0,96,0.25,,,1.45,,2013-05-03 18:51:00,
2013-05-03 14:01:00,44.0,43.0,29.92,WSW,253,12.0,12.0,96,0.25,,,1.45,,2013-05-03 19:01:00,
2013-05-03 14:11:00,44.0,43.0,29.92,WSW,253,12.0,12.0,96,0.25,,,1.45,,2013-05-03 19:11:00,
2013-05-03 14:21:00,43.0,42.0,29.92,SSW,205,12.0,12.0,96,0.17,,,1.55,,2013-05-03 19:21:00,
2013-05-03 14:32:00,43.0,42.0,29.92,SSW,205,12.0,12.0,96,0.17,,,1.55,,2013-05-03 19:32:00,
2013-05-03 14:42:00,43.0,42.0,29.92,SSW,205,12.0,12.0,96,0.17,,,1.55,,2013-05-03 19:42:00,
2013-05-03 14:52:00,43.0,42.0,29.92,SSW,205,12.0,12.0,96,0.17,,,1.55,,2013-05-03 19:52:00,
2013-05-03 15:02:00,42.0,41.0,29.92,SSW,213,4.0,7.0,96,0.29,,,1.71,,2013-05-03 20:02:00,
2013-05-03 15:11:00,42.0,41.0,29.92,SSW,213,4.0,7.0,96,0.29,,,1.71,,2013-05-03 20:11:00,
2013-05-03 15:21:00,42.0,41.0,29.92,SSW,213,4.0,7.0,96,0.29,,,1.71,,2013-05-03 20:21:00,
2013-05-03 15:31:00,42.0,41.0,29.92,West,259,16.0,16.0,97,0.24,,,1.72,,2013-05-03 20:31:00,
2013-05-03 15:42:00,42.0,41.0,29.92,West,259,16.0,16.0,97,0.24,,,1.72,,2013-05-03 20:42:00,
2013-05-03 15:52:00,42.0,41.0,29.92,West,259,16.0,16.0,97,0.24,,,1.72,,2013-05-03 20:52:00,
2013-05-03 16:01:00,43.0,42.0,29.95,West,266,4.0,11.0,96,0.17,,,1.73,,2013-05-03 21:01:00,
2013-05-03 16:11:00,43.0,42.0,29.95,West,266,4.0,11.0,96,0.17,,,1.73,,2013-05-03 21:11:00,
2013-05-03 16:21:00,43.0,42.0,29.95,West,266,4.0,11.0,96,0.17,,,1.73,,2013-05-03 21:21:00,
2013-05-03 16:33:00,42.0,41.0,29.93,SW,223,2.0,8.0,97,0.12,,,1.80,,2013-05-03 21:33:00,
2013-05-03 16:42:00,42.0,41.0,29.93,SW,223,2.0,8.0,97,0.12,,,1.80,,2013-05-03 21:42:00,
2013-05-03 16:53:00,42.0,41.0,29.93,SW,223,2.0,8.0,97,0.12,,,1.80,,2013-05-03 21:53:00,
2013-05-03 17:02:00,42.0,41.0,29.94,SW,215,16.0,16.0,96,0.12,,,1.86,,2013-05-03 22:02:00,
2013-05-03 17:12:00,42.0,41.0,29.94,SW,215,16.0,16.0,96,0.12,,,1.86,,2013-05-03 22:12:00,
2013-05-03 17:22:00,42.0,41.0,29.92,NNW,333,14.0,14.0,96,0.11,,,1.87,,2013-05-03 22:22:00,
2013-05-03 17:32:00,42.0,41.0,29.93,West,265,0.0,11.0,96,0.11,,,1.89,,2013-05-03 22:32:00,
2013-05-03 17:42:00,42.0,41.0,29.93,West,265,0.0,11.0,96,0.11,,,1.89,,2013-05-03 22:42:00,
2013-05-03 17:52:00,42.0,41.0,29.93,West,277,4.0,10.0,96,0.08,,,1.89,,2013-05-03 22:52:00,
2013-05-03 18:01:00,42.0,41.0,29.94,WNW,288,2.0,10.0,96,0.03,,,1.89,,2013-05-03 23:01:00,
2013-05-03 18:11:00,42.0,41.0,29.94,WNW,288,2.0,10.0,96,0.03,,,1.89,,2013-05-03 23:11:00,
2013-05-03 18:21:00,42.0,41.0,29.94,WNW,288,2.0,10.0,96,0.03,,,1.89,,2013-05-03 23:21:00,
2013-05-03 18:31:00,42.0,41.0,29.94,WSW,256,12.0,16.0,96,0.00,,,1.89,,2013-05-03 23:31:00,
2013-05-03 18:41:00,42.0,41.0,29.94,WSW,256,12.0,16.0,96,0.00,,,1.89,,2013-05-03 23:41:00,
2013-05-03 18:51:00,42.0,41.0,29.94,SW,223,10.0,13.0,96,0.00,,,1.89,,2013-05-03 23:51:00,
2013-05-03 19:01:00,42.0,41.0,29.94,SW,223,10.0,13.0,96,0.00,,,1.89,,2013-05-04 00:01:00,
2013-05-03 19:11:00,42.0,41.0,29.94,SW,223,10.0,13.0,96,0.00,,,1.89,,2013-05-04 00:11:00,
2013-05-03 19:22:00,42.0,41.0,29.95,WSW,240,4.0,8.0,96,0.00,,,1.89,,2013-05-04 00:22:00,
2013-05-03 19:31:00,42.0,41.0,29.95,WSW,240,4.0,8.0,96,0.00,,,1.89,,2013-05-04 00:31:00,
2013-05-03 19:42:00,42.0,41.0,29.95,WSW,240,4.0,8.0,96,0.00,,,1.89,,2013-05-04 00:42:00,
2013-05-03 19:52:00,41.0,40.0,29.96,SW,227,6.0,10.0,96,0.00,,,1.89,,2013-05-04 00:52:00,
2013-05-03 20:01:00,41.0,40.0,29.96,WSW,246,6.0,11.0,96,0.00,,,1.89,,2013-05-04 01:01:00,
2013-05-03 20:11:00,41.0,40.0,29.96,WSW,246,6.0,11.0,96,0.00,,,1.89,,2013-05-04 01:11:00,
2013-05-03 20:21:00,41.0,40.0,29.95,West,259,2.0,6.0,96,0.00,,,1.89,,2013-05-04 01:21:00,
2013-05-03 20:31:00,41.0,40.0,29.96,SW,223,4.0,10.0,95,0.00,,,1.89,,2013-05-04 01:31:00,
2013-05-03 20:41:00,41.0,40.0,29.96,SW,223,4.0,10.0,95,0.00,,,1.89,,2013-05-04 01:41:00,
2013-05-03 20:52:00,41.0,40.0,29.96,WSW,248,4.0,5.0,95,0.00,,,1.89,,2013-05-04 01:52:00,
2013-05-03 21:02:00,41.0,40.0,29.96,West,263,4.0,8.0,95,0.00,,,1.89,,2013-05-04 02:02:00,
2013-05-03 21:11:00,41.0,40.0,29.96,West,263,4.0,8.0,95,0.00,,,1.89,,2013-05-04 02:11:00,
2013-05-03 21:21:00,41.0,39.0,29.96,WSW,247,0.0,6.0,94,0.00,,,1.89,,2013-05-04 02:21:00,
2013-05-03 21:32:00,41.0,40.0,29.97,WSW,252,0.0,6.0,95,0.00,,,1.89,,2013-05-04 02:32:00,
2013-05-03 21:41:00,41.0,40.0,29.97,WSW,252,0.0,6.0,95,0.00,,,1.89,,2013-05-04 02:41:00,
2013-05-03 21:52:00,41.0,40.0,29.98,WSW,245,4.0,5.0,95,0.00,,,1.89,,2013-05-04 02:52:00,
2013-05-03 22:02:00,41.0,39.0,29.97,NNW,330,0.0,10.0,94,0.00,,,1.89,,2013-05-04 03:02:00,
2013-05-03 22:11:00,41.0,39.0,29.97,NNW,330,0.0,10.0,94,0.00,,,1.89,,2013-05-04 03:11:00,
2013-05-03 22:22:00,41.0,39.0,29.97,NNW,330,0.0,10.0,94,0.00,,,1.89,,2013-05-04 03:22:00,
2013-05-03 22:33:00,40.0,38.0,29.97,West,274,0.0,5.0,92,0.00,,,1.89,,2013-05-04 03:33:00,
2013-05-03 22:43:00,40.0,38.0,29.97,West,274,0.0,5.0,92,0.00,,,1.89,,2013-05-04 03:43:00,
2013-05-03 22:52:00,39.0,37.0,29.97,West,265,0.0,4.0,92,0.00,,,1.89,,2013-05-04 03:52:00,
2013-05-03 23:02:00,39.0,37.0,29.97,West,265,0.0,0.0,92,0.00,,,1.89,,2013-05-04 04:02:00,
2013-05-03 23:12:00,39.0,37.0,29.97,West,265,0.0,0.0,92,0.00,,,1.89,,2013-05-04 04:12:00,
2013-05-03 23:22:00,39.0,37.0,29.96,West,265,0.0,1.0,92,0.00,,,1.89,,2013-05-04 04:22:00,
2013-05-03 23:32:00,39.0,37.0,29.96,West,265,0.0,1.0,92,0.00,,,1.89,,2013-05-04 04:32:00,
2013-05-03 23:42:00,39.0,37.0,29.96,West,265,0.0,1.0,92,0.00,,,1.89,,2013-05-04 04:42:00,
2013-05-03 23:52:00,38.0,36.0,29.95,West,265,0.0,0.0,92,0.00,,,1.89,,2013-05-04 04:52:00,